createdAt,value
2019-03-28T00:00:59.175Z,26.00
2019-03-28T00:03:29.449Z,27.63
2019-03-28T00:05:59.300Z,24.80
2019-03-28T00:08:29.236Z,24.10
2019-03-28T00:11:00.161Z,28.43
2019-03-28T00:13:30.307Z,27.10
2019-03-28T00:16:00.313Z,30.77
2019-03-28T00:18:30.213Z,29.07
2019-03-28T00:21:00.072Z,25.47
2019-03-28T00:23:41.094Z,29.83
2019-03-28T00:26:10.956Z,25.87
2019-03-28T00:28:40.780Z,32.00
2019-03-28T00:31:11.230Z,28.17
2019-03-28T00:33:41.156Z,38.87
2019-03-28T00:36:11.003Z,30.43
2019-03-28T00:38:41.265Z,32.60
2019-03-28T00:41:11.156Z,31.73
2019-03-28T00:43:41.330Z,30.67
2019-03-28T00:46:11.279Z,29.30
2019-03-28T00:48:41.112Z,29.87
2019-03-28T00:51:11.476Z,25.53
2019-03-28T00:53:41.686Z,27.93
2019-03-28T00:56:11.612Z,26.67
2019-03-28T00:58:41.513Z,30.30
2019-03-28T01:01:11.741Z,30.87
2019-03-28T01:03:41.578Z,29.77
2019-03-28T01:06:11.873Z,26.90
2019-03-28T01:08:41.715Z,25.20
2019-03-28T01:11:12.125Z,27.50
2019-03-28T01:13:42.192Z,29.27
2019-03-28T01:16:14.088Z,35.27
2019-03-28T01:18:45.696Z,32.30
2019-03-28T01:21:16.278Z,33.03
2019-03-28T01:23:46.289Z,32.13
2019-03-28T01:26:16.553Z,30.30
2019-03-28T01:28:46.473Z,29.40
2019-03-28T01:31:16.741Z,31.27
2019-03-28T01:33:46.562Z,36.10
2019-03-28T01:36:16.431Z,30.57
2019-03-28T01:38:46.307Z,30.53
2019-03-28T01:41:16.675Z,28.17
2019-03-28T01:43:46.510Z,39.43
2019-03-28T01:46:16.356Z,34.83
2019-03-28T01:48:46.542Z,35.77
2019-03-28T01:51:16.465Z,35.87
2019-03-28T01:53:46.442Z,29.10
2019-03-28T01:56:16.363Z,35.77
2019-03-28T01:58:46.269Z,37.80
2019-03-28T02:01:16.102Z,37.50
2019-03-28T02:03:46.404Z,38.53
2019-03-28T02:06:16.335Z,38.10
2019-03-28T02:08:46.571Z,36.40
2019-03-28T02:11:16.430Z,36.97
2019-03-28T02:13:46.300Z,35.37
2019-03-28T02:16:16.566Z,39.10
2019-03-28T02:18:46.414Z,37.00
2019-03-28T02:21:16.846Z,33.97
2019-03-28T02:23:46.721Z,31.57
2019-03-28T02:26:16.904Z,32.63
2019-03-28T02:28:46.798Z,36.73
2019-03-28T02:31:16.922Z,30.23
2019-03-28T02:33:46.958Z,30.20
2019-03-28T02:36:17.316Z,31.53
2019-03-28T02:38:47.202Z,31.97
2019-03-28T02:41:17.152Z,35.90
2019-03-28T02:43:47.061Z,35.67
2019-03-28T02:46:17.025Z,38.07
2019-03-28T02:48:46.924Z,35.10
2019-03-28T02:51:16.838Z,34.07
2019-03-28T02:53:47.164Z,34.40
2019-03-28T02:56:17.052Z,32.10
2019-03-28T02:58:46.943Z,33.40
2019-03-28T03:01:16.889Z,31.77
2019-03-28T03:03:46.819Z,30.70
2019-03-28T03:06:16.757Z,37.90
2019-03-28T03:08:46.577Z,38.50
2019-03-28T03:11:16.425Z,30.17
2019-03-28T03:13:46.260Z,34.63
2019-03-28T03:16:16.141Z,41.33
2019-03-28T03:18:46.058Z,40.10
2019-03-28T03:21:15.935Z,30.70
2019-03-28T03:23:46.582Z,38.37
2019-03-28T03:26:16.528Z,33.40
2019-03-28T03:28:46.534Z,36.10
2019-03-28T03:31:20.838Z,40.10
2019-03-28T03:33:48.046Z,31.63
2019-03-28T03:36:17.999Z,32.23
2019-03-28T03:38:48.067Z,35.77
2019-03-28T03:41:18.052Z,32.03
2019-03-28T03:43:47.940Z,36.87
2019-03-28T03:46:18.942Z,35.70
2019-03-28T03:48:48.794Z,29.63
2019-03-28T03:51:18.650Z,29.67
2019-03-28T03:53:48.546Z,37.27
2019-03-28T03:56:18.521Z,39.00
2019-03-28T03:58:48.425Z,35.90
2019-03-28T04:01:18.735Z,35.10
2019-03-28T04:03:48.854Z,36.60
2019-03-28T04:06:18.729Z,43.83
2019-03-28T04:08:48.574Z,39.03
2019-03-28T04:11:18.453Z,34.23
2019-03-28T04:13:48.274Z,35.40
2019-03-28T04:16:18.211Z,32.37
2019-03-28T04:18:48.142Z,36.90
2019-03-28T04:21:18.081Z,32.33
2019-03-28T04:23:47.935Z,33.10
2019-03-28T04:26:17.781Z,42.63
2019-03-28T04:28:47.709Z,39.47
2019-03-28T04:31:17.598Z,37.30
2019-03-28T04:33:48.201Z,40.60
2019-03-28T04:36:18.070Z,37.97
2019-03-28T04:38:47.987Z,35.00
2019-03-28T04:41:17.929Z,33.03
2019-03-28T04:43:47.889Z,31.87
2019-03-28T04:46:17.766Z,32.73
2019-03-28T04:48:50.570Z,34.90
2019-03-28T04:51:19.177Z,35.87
2019-03-28T04:53:49.014Z,35.57
2019-03-28T04:56:18.861Z,32.37
2019-03-28T04:58:49.356Z,33.83
2019-03-28T05:01:19.411Z,35.60
2019-03-28T05:03:49.439Z,37.80
2019-03-28T05:06:20.801Z,33.13
2019-03-28T05:08:50.666Z,34.47
2019-03-28T05:11:20.595Z,37.53
2019-03-28T05:13:50.452Z,43.37
2019-03-28T05:16:20.332Z,32.73
2019-03-28T05:18:50.240Z,39.83
2019-03-28T05:21:20.457Z,31.43
2019-03-28T05:23:50.682Z,32.70
2019-03-28T05:26:20.453Z,34.57
2019-03-28T05:28:57.427Z,31.60
2019-03-28T05:31:22.269Z,38.83
2019-03-28T05:33:52.180Z,35.43
2019-03-28T05:36:22.411Z,38.00
2019-03-28T05:38:52.349Z,41.53
2019-03-28T05:41:22.175Z,32.67
2019-03-28T05:43:52.083Z,34.20
2019-03-28T05:46:21.964Z,37.20
2019-03-28T05:48:51.798Z,30.30
2019-03-28T05:51:21.694Z,36.67
2019-03-28T05:53:51.903Z,33.10
2019-03-28T05:56:21.719Z,35.23
2019-03-28T05:58:51.538Z,29.93
2019-03-28T06:01:21.526Z,37.47
2019-03-28T06:03:51.335Z,32.23
2019-03-28T06:06:21.205Z,39.20
2019-03-28T06:08:51.773Z,39.67
2019-03-28T06:11:22.212Z,34.40
2019-03-28T06:13:52.080Z,38.30
2019-03-28T06:16:21.972Z,35.17
2019-03-28T06:18:52.252Z,34.37
2019-03-28T06:21:22.111Z,37.80
2019-03-28T06:23:51.940Z,30.60
2019-03-28T06:26:21.825Z,31.97
2019-03-28T06:28:51.664Z,38.33
2019-03-28T06:31:21.533Z,33.90
2019-03-28T06:33:51.381Z,33.07
2019-03-28T06:36:21.249Z,35.20
2019-03-28T06:38:51.873Z,32.60
2019-03-28T06:41:21.776Z,37.10
2019-03-28T06:43:51.628Z,36.60
2019-03-28T06:46:21.552Z,36.17
2019-03-28T06:48:51.442Z,30.27
2019-03-28T06:51:21.630Z,30.77
2019-03-28T06:53:51.487Z,37.63
2019-03-28T06:56:21.377Z,35.77
2019-03-28T06:58:51.639Z,36.27
2019-03-28T07:01:21.820Z,29.83
2019-03-28T07:03:51.718Z,38.43
2019-03-28T07:06:21.587Z,34.40
2019-03-28T07:08:51.466Z,32.70
2019-03-28T07:11:21.357Z,33.40
2019-03-28T07:13:51.208Z,31.03
2019-03-28T07:16:21.319Z,27.57
2019-03-28T07:18:51.764Z,30.90
2019-03-28T07:21:21.565Z,31.33
2019-03-28T07:23:51.393Z,30.53
2019-03-28T07:26:21.628Z,35.67
2019-03-28T07:28:54.181Z,37.23
2019-03-28T07:31:23.105Z,33.73
2019-03-28T07:33:53.008Z,32.13
2019-03-28T07:36:22.856Z,35.57
2019-03-28T07:38:52.737Z,31.80
2019-03-28T07:41:22.560Z,32.23
2019-03-28T07:43:52.406Z,32.50
2019-03-28T07:46:22.282Z,31.67
2019-03-28T07:48:52.441Z,35.13
2019-03-28T07:51:22.369Z,34.93
2019-03-28T07:53:52.215Z,42.47
2019-03-28T07:56:22.056Z,34.87
2019-03-28T07:58:51.929Z,32.97
2019-03-28T08:01:21.806Z,41.17
2019-03-28T08:03:51.660Z,36.83
2019-03-28T08:06:21.606Z,34.87
2019-03-28T08:08:51.485Z,33.30
2019-03-28T08:11:21.436Z,28.40
2019-03-28T08:13:51.285Z,29.80
2019-03-28T08:16:21.157Z,32.17
2019-03-28T08:18:51.007Z,29.17
2019-03-28T08:21:20.908Z,34.20
2019-03-28T08:23:50.805Z,32.57
2019-03-28T08:26:20.647Z,32.87
2019-03-28T08:28:50.544Z,34.37
2019-03-28T08:31:20.489Z,30.20
2019-03-28T08:33:50.409Z,35.30
2019-03-28T08:36:20.460Z,29.30
2019-03-28T08:38:52.039Z,29.83
2019-03-28T08:41:21.912Z,32.60
2019-03-28T08:43:51.740Z,31.30
2019-03-28T08:46:21.620Z,34.17
2019-03-28T08:48:51.464Z,28.00
2019-03-28T08:51:21.301Z,33.33
2019-03-28T08:53:51.196Z,31.90
2019-03-28T08:56:21.313Z,38.20
2019-03-28T08:58:51.293Z,45.40
2019-03-28T09:01:23.010Z,35.10
2019-03-28T09:03:52.929Z,38.20
2019-03-28T09:06:22.798Z,33.20
2019-03-28T09:08:52.916Z,41.67
2019-03-28T09:11:23.114Z,37.47
2019-03-28T09:13:53.357Z,37.77
2019-03-28T09:16:23.222Z,36.23
2019-03-28T09:18:54.413Z,37.30
2019-03-28T09:21:24.620Z,40.30
2019-03-28T09:23:54.560Z,33.57
2019-03-28T09:26:25.373Z,42.67
2019-03-28T09:28:55.290Z,37.57
2019-03-28T09:31:25.535Z,33.93
2019-03-28T09:33:55.390Z,51.47
2019-03-28T09:36:25.281Z,38.50
2019-03-28T09:38:55.554Z,42.33
2019-03-28T09:41:25.482Z,35.87
2019-03-28T09:43:56.065Z,43.67
2019-03-28T09:46:26.087Z,43.73
2019-03-28T09:48:56.174Z,40.00
2019-03-28T09:51:26.493Z,37.00
2019-03-28T09:53:56.561Z,40.40
2019-03-28T09:56:26.430Z,43.47
2019-03-28T09:58:56.340Z,42.77
2019-03-28T10:01:26.167Z,37.23
2019-03-28T10:03:56.026Z,41.00
2019-03-28T10:06:25.879Z,42.93
2019-03-28T10:08:56.138Z,38.03
2019-03-28T10:11:26.442Z,36.07
2019-03-28T10:13:56.277Z,47.63
2019-03-28T10:16:26.199Z,43.33
2019-03-28T10:18:56.537Z,43.20
2019-03-28T10:21:26.468Z,36.20
2019-03-28T10:23:56.877Z,48.33
2019-03-28T10:26:26.708Z,47.10
2019-03-28T10:28:56.568Z,34.30
2019-03-28T10:31:26.829Z,45.80
2019-03-28T10:33:56.684Z,33.03
2019-03-28T10:36:27.938Z,29.87
2019-03-28T10:38:58.020Z,33.03
2019-03-28T10:41:28.784Z,29.53
2019-03-28T10:43:58.995Z,33.60
2019-03-28T10:46:28.862Z,33.53
2019-03-28T10:48:58.840Z,27.83
2019-03-28T10:51:28.787Z,42.27
2019-03-28T10:53:58.738Z,26.63
2019-03-28T10:56:28.644Z,21.77
2019-03-28T10:58:58.539Z,27.47
2019-03-28T11:01:46.951Z,22.40
2019-03-28T11:04:00.017Z,24.17
2019-03-28T11:06:29.909Z,32.23
2019-03-28T11:09:00.756Z,26.23
2019-03-28T11:11:30.601Z,28.30
2019-03-28T11:14:01.053Z,29.20
2019-03-28T11:16:30.955Z,31.53
2019-03-28T11:19:00.842Z,33.43
2019-03-28T11:21:34.106Z,31.30
2019-03-28T11:24:02.262Z,23.33
2019-03-28T11:26:32.079Z,36.43
2019-03-28T11:29:02.216Z,27.10
2019-03-28T11:31:45.279Z,26.00
2019-03-28T11:34:05.035Z,28.17
2019-03-28T11:36:34.949Z,32.20
2019-03-28T11:39:08.096Z,27.80
2019-03-28T11:41:37.939Z,25.53
2019-03-28T11:44:07.772Z,23.90
2019-03-28T11:46:38.107Z,28.60
2019-03-28T11:49:07.944Z,30.43
2019-03-28T11:51:37.787Z,25.30
2019-03-28T11:54:07.727Z,19.90
2019-03-28T11:56:37.627Z,27.87
2019-03-28T11:59:08.664Z,27.30
2019-03-28T12:01:38.497Z,26.00
2019-03-28T12:04:08.669Z,26.57
2019-03-28T12:06:38.901Z,21.60
2019-03-28T12:09:08.897Z,24.50
2019-03-28T12:11:38.814Z,23.77
2019-03-28T12:14:08.674Z,21.90
2019-03-28T12:16:38.536Z,30.93
2019-03-28T12:19:08.370Z,24.83
2019-03-28T12:21:38.579Z,28.87
2019-03-28T12:24:08.452Z,26.30
2019-03-28T12:26:38.340Z,36.10
2019-03-28T12:29:08.928Z,28.13
2019-03-28T12:31:39.102Z,30.73
2019-03-28T12:34:09.149Z,27.70
2019-03-28T12:36:39.114Z,32.83
2019-03-28T12:39:08.939Z,26.30
2019-03-28T12:41:38.852Z,31.80
2019-03-28T12:44:08.711Z,25.30
2019-03-28T12:46:38.588Z,30.60
2019-03-28T12:49:08.628Z,28.00
2019-03-28T12:51:38.488Z,29.83
2019-03-28T12:54:08.419Z,25.27
2019-03-28T12:56:38.694Z,30.07
2019-03-28T12:59:09.784Z,27.70
2019-03-28T13:01:39.628Z,24.63
2019-03-28T13:04:09.488Z,26.70
2019-03-28T13:06:39.321Z,29.30
2019-03-28T13:09:10.720Z,26.17
2019-03-28T13:11:40.644Z,29.47
2019-03-28T13:14:11.039Z,32.37
2019-03-28T13:16:41.294Z,30.43
2019-03-28T13:19:11.150Z,25.70
2019-03-28T13:21:40.973Z,26.97
2019-03-28T13:24:10.831Z,24.90
2019-03-28T13:26:40.672Z,30.93
2019-03-28T13:29:10.692Z,27.27
2019-03-28T13:31:40.723Z,25.20
2019-03-28T13:34:10.569Z,29.63
2019-03-28T13:36:40.487Z,25.17
2019-03-28T13:39:10.720Z,25.50
2019-03-28T13:41:40.574Z,35.70
2019-03-28T13:44:12.378Z,28.93
2019-03-28T13:46:42.372Z,28.57
2019-03-28T13:49:12.216Z,25.83
2019-03-28T13:51:42.057Z,26.17
2019-03-28T13:54:12.076Z,29.20
2019-03-28T13:56:41.913Z,29.20
2019-03-28T13:59:13.189Z,30.60
2019-03-28T14:01:43.047Z,28.53
2019-03-28T14:04:12.999Z,29.53
2019-03-28T14:06:43.007Z,26.60
2019-03-28T14:09:13.114Z,27.97
2019-03-28T14:11:43.317Z,32.67
2019-03-28T14:14:13.234Z,29.60
2019-03-28T14:16:43.187Z,33.47
2019-03-28T14:19:13.321Z,28.30
2019-03-28T14:21:43.159Z,30.13
2019-03-28T14:24:13.126Z,26.33
2019-03-28T14:26:43.022Z,27.70
2019-03-28T14:29:12.850Z,27.60
2019-03-28T14:31:44.796Z,25.03
2019-03-28T14:34:14.744Z,26.10
2019-03-28T14:36:44.566Z,39.70
2019-03-28T14:39:14.394Z,31.67
2019-03-28T14:41:46.353Z,34.73
2019-03-28T14:44:15.968Z,30.47
2019-03-28T14:46:45.877Z,27.97
2019-03-28T14:49:16.554Z,34.97
2019-03-28T14:51:46.434Z,27.33
2019-03-28T14:54:16.424Z,34.10
2019-03-28T14:56:49.614Z,34.93
2019-03-28T14:59:31.734Z,31.70
2019-03-28T15:01:51.877Z,36.07
2019-03-28T15:04:21.711Z,32.70
2019-03-28T15:06:51.572Z,29.00
2019-03-28T15:09:21.425Z,34.20
2019-03-28T15:11:51.302Z,31.60
2019-03-28T15:14:21.502Z,29.37
2019-03-28T15:16:51.408Z,34.47
2019-03-28T15:19:21.326Z,43.63
2019-03-28T15:21:51.917Z,35.60
2019-03-28T15:24:21.766Z,32.47
2019-03-28T15:26:52.186Z,34.73
2019-03-28T15:29:22.273Z,31.80
2019-03-28T15:31:52.168Z,29.97
2019-03-28T15:34:22.116Z,34.00
2019-03-28T15:36:51.987Z,32.93
2019-03-28T15:39:22.113Z,38.97
2019-03-28T15:41:55.419Z,37.60
2019-03-28T15:44:25.677Z,34.63
2019-03-28T15:46:55.856Z,33.13
2019-03-28T15:49:26.113Z,34.73
2019-03-28T15:51:56.213Z,34.30
2019-03-28T15:54:26.486Z,37.30
2019-03-28T15:56:58.736Z,33.87
2019-03-28T15:59:28.775Z,35.50
2019-03-28T16:01:59.965Z,36.13
2019-03-28T16:04:30.059Z,38.60
2019-03-28T16:07:00.340Z,38.47
2019-03-28T16:09:30.225Z,37.03
2019-03-28T16:12:02.846Z,36.63
2019-03-28T16:14:31.765Z,38.10
2019-03-28T16:17:01.628Z,35.43
2019-03-28T16:19:34.745Z,39.80
2019-03-28T16:22:04.947Z,39.47
2019-03-28T16:24:34.890Z,35.00
2019-03-28T16:27:04.830Z,38.67
2019-03-28T16:29:34.682Z,36.60
2019-03-28T16:32:09.584Z,34.37
2019-03-28T16:34:43.178Z,38.30
2019-03-28T16:37:13.013Z,36.00
2019-03-28T16:39:43.422Z,37.30
2019-03-28T16:42:13.358Z,33.80
2019-03-28T16:44:43.213Z,34.43
2019-03-28T16:47:13.072Z,38.03
2019-03-28T16:49:43.026Z,43.03
2019-03-28T16:52:12.832Z,41.30
2019-03-28T16:54:42.694Z,38.07
2019-03-28T16:57:34.048Z,39.53
2019-03-28T17:00:27.920Z,37.23
2019-03-28T17:03:02.796Z,34.77
2019-03-28T17:05:34.742Z,34.40
2019-03-28T17:08:14.945Z,36.90
2019-03-28T17:10:54.976Z,29.87
2019-03-28T17:13:32.508Z,32.77
2019-03-28T17:16:08.011Z,39.17
2019-03-28T17:18:45.594Z,36.27
2019-03-28T17:21:15.547Z,39.20
2019-03-28T17:23:45.446Z,36.63
2019-03-28T17:26:15.630Z,41.03
2019-03-28T17:28:45.508Z,33.70
2019-03-28T17:31:15.395Z,36.47
2019-03-28T17:33:45.355Z,35.33
2019-03-28T17:36:15.268Z,34.00
2019-03-28T17:38:45.138Z,38.07
2019-03-28T17:41:16.104Z,46.40
2019-03-28T17:43:45.992Z,34.90
2019-03-28T17:46:15.860Z,37.50
2019-03-28T17:48:45.714Z,39.83
2019-03-28T17:51:15.595Z,37.97
2019-03-28T17:53:45.700Z,39.50
2019-03-28T17:56:16.024Z,42.77
2019-03-28T17:58:46.243Z,36.73
2019-03-28T18:01:16.113Z,41.50
2019-03-28T18:03:46.397Z,38.07
2019-03-28T18:06:16.265Z,38.87
2019-03-28T18:08:46.192Z,41.40
2019-03-28T18:11:34.670Z,43.60
2019-03-28T18:14:04.785Z,45.60
2019-03-28T18:16:34.740Z,37.83
2019-03-28T18:19:04.595Z,41.23
2019-03-28T18:21:34.462Z,44.17
2019-03-28T18:24:04.493Z,39.43
2019-03-28T18:26:34.459Z,42.47
2019-03-28T18:29:04.338Z,46.33
2019-03-28T18:31:34.320Z,41.60
2019-03-28T18:34:04.161Z,55.90
2019-03-28T18:36:34.010Z,40.73
2019-03-28T18:39:04.064Z,44.83
2019-03-28T18:41:34.020Z,55.50
2019-03-28T18:44:03.927Z,53.00
2019-03-28T18:46:33.762Z,46.73
2019-03-28T18:49:04.191Z,49.77
2019-03-28T18:51:34.724Z,48.63
2019-03-28T18:54:04.557Z,53.33
2019-03-28T18:56:34.433Z,50.47
2019-03-28T18:59:04.359Z,50.07
2019-03-28T19:01:34.226Z,52.90
2019-03-28T19:04:04.125Z,47.03
2019-03-28T19:06:33.990Z,53.30
2019-03-28T19:09:05.556Z,52.20
2019-03-28T19:11:35.415Z,49.07
2019-03-28T19:14:05.856Z,51.10
2019-03-28T19:16:35.820Z,43.20
2019-03-28T19:19:08.669Z,46.70
2019-03-28T19:21:40.285Z,50.23
2019-03-28T19:24:10.631Z,52.87
2019-03-28T19:26:42.633Z,46.73
2019-03-28T19:29:12.951Z,46.17
2019-03-28T19:31:42.986Z,50.77
2019-03-28T19:34:12.979Z,45.93
2019-03-28T19:36:44.995Z,44.40
2019-03-28T19:39:26.732Z,57.20
2019-03-28T19:41:57.058Z,47.90
2019-03-28T19:44:27.215Z,54.30
2019-03-28T19:46:57.040Z,61.60
2019-03-28T19:49:26.875Z,45.33
2019-03-28T19:51:56.722Z,42.50
2019-03-28T19:54:26.586Z,51.10
2019-03-28T19:56:57.423Z,55.03
2019-03-28T19:59:27.470Z,55.37
2019-03-28T20:01:57.317Z,50.83
2019-03-28T20:04:31.087Z,50.77
2019-03-28T20:07:01.117Z,50.60
2019-03-28T20:09:32.370Z,61.30
2019-03-28T20:12:09.103Z,64.80
2019-03-28T20:14:43.171Z,66.97
2019-03-28T20:17:16.493Z,51.57
2019-03-28T20:19:54.232Z,53.83
2019-03-28T20:22:24.371Z,53.77
2019-03-28T20:25:07.480Z,60.70
2019-03-28T20:27:45.831Z,53.80
2019-03-28T20:30:18.981Z,59.73
2019-03-28T20:32:53.166Z,59.90
2019-03-28T20:35:24.200Z,48.93
2019-03-28T20:37:54.679Z,61.23
2019-03-28T20:40:25.331Z,66.30
2019-03-28T20:42:58.236Z,55.43
2019-03-28T20:45:30.014Z,59.90
2019-03-28T20:48:09.892Z,70.03
2019-03-28T20:50:51.367Z,56.60
2019-03-28T20:53:24.608Z,66.73
2019-03-28T20:55:58.449Z,54.83
2019-03-28T20:58:36.865Z,48.13
2019-03-28T21:01:07.965Z,53.53
2019-03-28T21:03:38.506Z,57.60
2019-03-28T21:06:15.299Z,59.60
2019-03-28T21:08:40.371Z,57.33
2019-03-28T21:11:10.196Z,56.93
2019-03-28T21:13:40.066Z,52.73
2019-03-28T21:16:09.955Z,56.07
2019-03-28T21:18:39.807Z,54.00
2019-03-28T21:21:09.731Z,56.13
2019-03-28T21:23:39.657Z,53.23
2019-03-28T21:26:09.833Z,66.90
2019-03-28T21:28:46.960Z,51.90
2019-03-28T21:31:12.052Z,55.93
2019-03-28T21:33:41.996Z,50.80
2019-03-28T21:36:11.947Z,51.47
2019-03-28T21:38:42.275Z,57.23
2019-03-28T21:41:12.826Z,58.57
2019-03-28T21:43:42.683Z,49.07
2019-03-28T21:46:12.479Z,59.07
2019-03-28T21:48:43.006Z,52.40
2019-03-28T21:51:13.313Z,46.00
2019-03-28T21:53:44.014Z,65.03
2019-03-28T21:56:14.383Z,55.37
2019-03-28T21:58:44.416Z,53.57
2019-03-28T22:01:14.269Z,52.70
2019-03-28T22:03:44.523Z,57.23
2019-03-28T22:06:14.361Z,53.97
2019-03-28T22:08:44.213Z,50.00
2019-03-28T22:11:14.020Z,58.90
2019-03-28T22:13:43.872Z,50.70
2019-03-28T22:16:13.680Z,47.30
2019-03-28T22:18:43.490Z,61.87
2019-03-28T22:21:13.360Z,58.37
2019-03-28T22:23:43.510Z,54.13
2019-03-28T22:26:14.377Z,60.77
2019-03-28T22:28:44.382Z,55.73
2019-03-28T22:31:14.227Z,52.77
2019-03-28T22:33:44.488Z,46.70
2019-03-28T22:36:15.466Z,57.37
2019-03-28T22:38:45.386Z,56.13
2019-03-28T22:41:16.044Z,50.20
2019-03-28T22:43:46.394Z,61.67
2019-03-28T22:46:16.642Z,53.43
2019-03-28T22:48:46.813Z,53.00
2019-03-28T22:51:16.636Z,53.03
2019-03-28T22:53:46.470Z,54.57
2019-03-28T22:56:17.113Z,54.57
2019-03-28T22:58:47.386Z,55.10
2019-03-28T23:01:17.448Z,56.27
2019-03-28T23:03:47.306Z,55.57
2019-03-28T23:06:17.225Z,56.23
2019-03-28T23:08:47.121Z,54.57
2019-03-28T23:11:16.971Z,57.03
2019-03-28T23:13:47.121Z,55.87
2019-03-28T23:16:17.349Z,53.50
2019-03-28T23:18:48.874Z,54.57
2019-03-28T23:21:18.766Z,57.73
2019-03-28T23:23:48.621Z,51.07
2019-03-28T23:26:18.467Z,52.47
2019-03-28T23:28:48.351Z,53.40
2019-03-28T23:31:18.458Z,52.93
2019-03-28T23:33:48.287Z,54.17
2019-03-28T23:36:18.145Z,59.03
2019-03-28T23:38:48.049Z,48.17
2019-03-28T23:41:17.884Z,55.63
2019-03-28T23:43:48.235Z,52.17
2019-03-28T23:46:18.080Z,65.53
2019-03-28T23:48:48.182Z,50.73
2019-03-28T23:51:18.166Z,49.40
2019-03-28T23:53:48.011Z,55.73
2019-03-28T23:56:17.850Z,50.07
2019-03-28T23:58:47.715Z,51.97
